Seaside Park, New Jersey
Current Conditions -  °F | °C
As of 8:15 AM on Thursday 23 Oct 2014 (Local Time) from KMJX Reporting Station
Overcast Overcast  
Wind Chill: 10°   Ceiling: 1100
Heat Index: 10°   Visibility: 10mi
Dew Point:   Wind: 12mph
Humidity: 94%   Direction: 320°NW
Pressure: 29.71"   Gusts: 16mph
Location:  39.93°N, 74.07°W
Report Text: KMJX 231215Z AUTO 32010G14KT 10SM BKN011 OVC017 10/09 A2971 RMK AO1
Loading
Personal Weather Stations






























Interactive Weather Map
Tropical Storm Tracking
New forecast layout! Learn more

10-Day Weather Forecast

Advertisements
Track Severe Weather on mobile